Etusivu
METAR-TAF:

METAR-TAF

Lentoasemat :

Millington, Tennessee, Yhdysvallat

Leveyspiiri: 35-21-24N, Pituuspiiri: 089-52-13W, korkeus merenpinnasta: 98 m

Tämänhetkinen sää

Tämä raportti tehtiin 58 minuuttia sitten, kello 23.50 UTC
Tuuli 7 kn koillisesta puuskistuen 17 kn:hen
Lämpötila 3°C
Kosteus 93%
Ilmanpaine 1019 hPa
Näkyvyys: 6.4 km
Pilvistä 600 ft:n korkeudessa
heikkoa sadetta, utua

METAR: KNQA 192350Z 05007G17KT 4SM -RA BR OVC006 03/02 A3008

Aika: 18:48 (00:48 UTC)


TAF: puuttuu

Säähavainnot ja -ennusteet yli 4000 lentoasemalta (METAR- ja TAF-raportit).

Käytössä olevat sääasemat on merkitty karttaan keltaisilla ja punaisilla pisteillä.

Aseta hiiri pisteen päälle nähdäksesi sääaseman nimen.

Klikkaa sitten nähdäksesi säähavainnot ja -ennusteet.

Kartan vaihtaminen: klikkaa mustalla rastilla varustettuja vihreitä pisteitä, niin voit zoomata sisään; viivalla varustettua vihreää pistettä, niin voit zoomata ulos tai vihreitä nuolia, niin pääset viereisille kartoille.


METAR-TAF: